sensor_id;sensor_type;location;lat;lon;timestamp;temperature;humidity
64882;HTU21D;51375;44.836;38.672;2023-11-22T00:01:48;10.46;66.85
64882;HTU21D;51375;44.836;38.672;2023-11-22T00:04:14;10.48;66.91
64882;HTU21D;51375;44.836;38.672;2023-11-22T00:06:40;10.45;66.94
64882;HTU21D;51375;44.836;38.672;2023-11-22T00:09:06;10.45;66.91
64882;HTU21D;51375;44.836;38.672;2023-11-22T00:11:32;10.44;66.83
64882;HTU21D;51375;44.836;38.672;2023-11-22T00:13:58;10.41;66.72
64882;HTU21D;51375;44.836;38.672;2023-11-22T00:16:24;10.40;66.74
64882;HTU21D;51375;44.836;38.672;2023-11-22T00:18:50;10.39;66.74
64882;HTU21D;51375;44.836;38.672;2023-11-22T00:21:16;10.36;66.66
64882;HTU21D;51375;44.836;38.672;2023-11-22T00:23:42;10.31;66.77
64882;HTU21D;51375;44.836;38.672;2023-11-22T00:26:08;10.29;66.85
64882;HTU21D;51375;44.836;38.672;2023-11-22T00:28:35;10.28;66.88
64882;HTU21D;51375;44.836;38.672;2023-11-22T00:31:01;10.28;66.94
64882;HTU21D;51375;44.836;38.672;2023-11-22T00:33:27;10.29;66.98
64882;HTU21D;51375;44.836;38.672;2023-11-22T00:35:53;10.28;66.96
64882;HTU21D;51375;44.836;38.672;2023-11-22T00:38:23;10.28;66.88
64882;HTU21D;51375;44.836;38.672;2023-11-22T00:40:49;10.28;66.88
64882;HTU21D;51375;44.836;38.672;2023-11-22T00:43:18;10.29;66.95
64882;HTU21D;51375;44.836;38.672;2023-11-22T00:45:44;10.29;66.93
64882;HTU21D;51375;44.836;38.672;2023-11-22T00:48:11;10.30;66.86
64882;HTU21D;51375;44.836;38.672;2023-11-22T00:50:36;10.31;66.85
64882;HTU21D;51375;44.836;38.672;2023-11-22T00:53:02;10.31;66.81
64882;HTU21D;51375;44.836;38.672;2023-11-22T00:55:29;10.33;66.81
64882;HTU21D;51375;44.836;38.672;2023-11-22T00:57:55;10.34;66.72
64882;HTU21D;51375;44.836;38.672;2023-11-22T01:00:27;10.27;66.79
64882;HTU21D;51375;44.836;38.672;2023-11-22T01:02:54;10.15;66.83
64882;HTU21D;51375;44.836;38.672;2023-11-22T01:05:20;9.94;67.35
64882;HTU21D;51375;44.836;38.672;2023-11-22T01:07:46;9.85;67.74
64882;HTU21D;51375;44.836;38.672;2023-11-22T01:10:12;9.86;67.83
64882;HTU21D;51375;44.836;38.672;2023-11-22T01:12:39;9.89;67.62
64882;HTU21D;51375;44.836;38.672;2023-11-22T01:15:05;9.83;67.63
64882;HTU21D;51375;44.836;38.672;2023-11-22T01:17:31;9.79;67.82
64882;HTU21D;51375;44.836;38.672;2023-11-22T01:19:57;9.82;67.91
64882;HTU21D;51375;44.836;38.672;2023-11-22T01:22:24;9.88;67.88
64882;HTU21D;51375;44.836;38.672;2023-11-22T01:24:50;9.93;67.77
64882;HTU21D;51375;44.836;38.672;2023-11-22T01:27:17;9.98;67.55
64882;HTU21D;51375;44.836;38.672;2023-11-22T01:29:43;10.03;67.41
64882;HTU21D;51375;44.836;38.672;2023-11-22T01:32:09;10.04;67.30
64882;HTU21D;51375;44.836;38.672;2023-11-22T01:34:36;10.07;67.24
64882;HTU21D;51375;44.836;38.672;2023-11-22T01:37:02;10.09;67.12
64882;HTU21D;51375;44.836;38.672;2023-11-22T01:39:30;10.08;67.11
64882;HTU21D;51375;44.836;38.672;2023-11-22T01:41:56;10.09;67.11
64882;HTU21D;51375;44.836;38.672;2023-11-22T01:44:22;10.10;66.91
64882;HTU21D;51375;44.836;38.672;2023-11-22T01:46:49;10.09;66.88
64882;HTU21D;51375;44.836;38.672;2023-11-22T01:49:15;10.08;66.87
64882;HTU21D;51375;44.836;38.672;2023-11-22T01:51:41;10.00;66.92
64882;HTU21D;51375;44.836;38.672;2023-11-22T01:54:08;9.82;66.95
64882;HTU21D;51375;44.836;38.672;2023-11-22T01:56:35;9.60;67.47
64882;HTU21D;51375;44.836;38.672;2023-11-22T01:59:05;9.48;68.02
64882;HTU21D;51375;44.836;38.672;2023-11-22T02:01:31;9.48;68.20
64882;HTU21D;51375;44.836;38.672;2023-11-22T02:03:57;9.53;68.07
64882;HTU21D;51375;44.836;38.672;2023-11-22T02:06:23;9.62;67.92
64882;HTU21D;51375;44.836;38.672;2023-11-22T02:08:50;9.68;67.62
64882;HTU21D;51375;44.836;38.672;2023-11-22T02:11:19;9.67;67.28
64882;HTU21D;51375;44.836;38.672;2023-11-22T02:13:50;9.45;67.63
64882;HTU21D;51375;44.836;38.672;2023-11-22T02:16:16;9.47;67.66
64882;HTU21D;51375;44.836;38.672;2023-11-22T02:18:45;9.50;67.57
64882;HTU21D;51375;44.836;38.672;2023-11-22T02:21:11;9.49;67.50
64882;HTU21D;51375;44.836;38.672;2023-11-22T02:23:37;9.46;67.43
64882;HTU21D;51375;44.836;38.672;2023-11-22T02:26:02;9.38;67.65
64882;HTU21D;51375;44.836;38.672;2023-11-22T02:28:28;9.37;67.79
64882;HTU21D;51375;44.836;38.672;2023-11-22T02:30:55;9.38;67.76
64882;HTU21D;51375;44.836;38.672;2023-11-22T02:33:21;9.41;67.59
64882;HTU21D;51375;44.836;38.672;2023-11-22T02:35:47;9.39;67.43
64882;HTU21D;51375;44.836;38.672;2023-11-22T02:38:13;9.30;67.65
64882;HTU21D;51375;44.836;38.672;2023-11-22T02:40:39;9.26;67.83
64882;HTU21D;51375;44.836;38.672;2023-11-22T02:43:06;9.30;67.82
64882;HTU21D;51375;44.836;38.672;2023-11-22T02:45:34;9.29;67.84
64882;HTU21D;51375;44.836;38.672;2023-11-22T02:48:00;9.31;67.90
64882;HTU21D;51375;44.836;38.672;2023-11-22T02:50:30;9.34;67.88
64882;HTU21D;51375;44.836;38.672;2023-11-22T02:53:00;9.38;67.72
64882;HTU21D;51375;44.836;38.672;2023-11-22T02:55:25;9.33;67.75
64882;HTU21D;51375;44.836;38.672;2023-11-22T02:57:51;9.22;67.72
64882;HTU21D;51375;44.836;38.672;2023-11-22T03:00:18;9.02;68.11
64882;HTU21D;51375;44.836;38.672;2023-11-22T03:02:46;8.79;68.62
64882;HTU21D;51375;44.836;38.672;2023-11-22T03:05:13;8.68;68.97
64882;HTU21D;51375;44.836;38.672;2023-11-22T03:07:43;8.59;69.19
64882;HTU21D;51375;44.836;38.672;2023-11-22T03:10:09;8.55;69.49
64882;HTU21D;51375;44.836;38.672;2023-11-22T03:12:36;8.58;69.37
64882;HTU21D;51375;44.836;38.672;2023-11-22T03:15:03;8.49;69.52
64882;HTU21D;51375;44.836;38.672;2023-11-22T03:17:30;8.43;69.73
64882;HTU21D;51375;44.836;38.672;2023-11-22T03:19:59;8.43;69.69
64882;HTU21D;51375;44.836;38.672;2023-11-22T03:22:27;8.38;69.68
64882;HTU21D;51375;44.836;38.672;2023-11-22T03:24:56;8.35;69.87
64882;HTU21D;51375;44.836;38.672;2023-11-22T03:27:24;8.32;69.97
64882;HTU21D;51375;44.836;38.672;2023-11-22T03:29:51;8.31;70.08
64882;HTU21D;51375;44.836;38.672;2023-11-22T03:32:16;8.30;70.04
64882;HTU21D;51375;44.836;38.672;2023-11-22T03:34:44;8.29;70.19
64882;HTU21D;51375;44.836;38.672;2023-11-22T03:37:10;8.30;70.15
64882;HTU21D;51375;44.836;38.672;2023-11-22T03:39:37;8.35;70.19
64882;HTU21D;51375;44.836;38.672;2023-11-22T03:42:03;8.43;69.99
64882;HTU21D;51375;44.836;38.672;2023-11-22T03:44:29;8.45;69.91
64882;HTU21D;51375;44.836;38.672;2023-11-22T03:46:56;8.45;70.00
64882;HTU21D;51375;44.836;38.672;2023-11-22T03:49:22;8.53;69.92
64882;HTU21D;51375;44.836;38.672;2023-11-22T03:51:48;8.65;69.68
64882;HTU21D;51375;44.836;38.672;2023-11-22T03:54:14;8.70;69.41
64882;HTU21D;51375;44.836;38.672;2023-11-22T03:56:40;8.63;69.44
64882;HTU21D;51375;44.836;38.672;2023-11-22T03:59:06;8.57;69.60
64882;HTU21D;51375;44.836;38.672;2023-11-22T04:01:32;8.49;69.78
64882;HTU21D;51375;44.836;38.672;2023-11-22T04:03:58;8.44;69.91
64882;HTU21D;51375;44.836;38.672;2023-11-22T04:06:23;8.35;70.01
64882;HTU21D;51375;44.836;38.672;2023-11-22T04:08:49;8.21;69.98
64882;HTU21D;51375;44.836;38.672;2023-11-22T04:11:16;8.01;70.45
64882;HTU21D;51375;44.836;38.672;2023-11-22T04:13:43;7.86;70.77
64882;HTU21D;51375;44.836;38.672;2023-11-22T04:16:10;7.72;71.18
64882;HTU21D;51375;44.836;38.672;2023-11-22T04:18:39;7.62;71.51
64882;HTU21D;51375;44.836;38.672;2023-11-22T04:21:06;7.62;71.84
64882;HTU21D;51375;44.836;38.672;2023-11-22T04:23:32;7.73;71.70
64882;HTU21D;51375;44.836;38.672;2023-11-22T04:26:01;7.82;71.58
64882;HTU21D;51375;44.836;38.672;2023-11-22T04:28:28;7.91;71.47
64882;HTU21D;51375;44.836;38.672;2023-11-22T04:30:55;8.02;71.36
64882;HTU21D;51375;44.836;38.672;2023-11-22T04:33:23;8.02;71.42
64882;HTU21D;51375;44.836;38.672;2023-11-22T04:35:59;8.00;71.56
64882;HTU21D;51375;44.836;38.672;2023-11-22T04:38:25;8.12;71.56
64882;HTU21D;51375;44.836;38.672;2023-11-22T04:40:57;8.15;71.49
64882;HTU21D;51375;44.836;38.672;2023-11-22T04:43:22;8.24;71.45
64882;HTU21D;51375;44.836;38.672;2023-11-22T04:45:50;8.37;71.22
64882;HTU21D;51375;44.836;38.672;2023-11-22T04:48:18;8.45;71.06
64882;HTU21D;51375;44.836;38.672;2023-11-22T04:50:44;8.51;71.07
64882;HTU21D;51375;44.836;38.672;2023-11-22T04:53:10;8.59;70.86
64882;HTU21D;51375;44.836;38.672;2023-11-22T04:55:37;8.47;70.93
64882;HTU21D;51375;44.836;38.672;2023-11-22T04:58:03;8.32;71.32
64882;HTU21D;51375;44.836;38.672;2023-11-22T05:00:29;8.12;72.21
64882;HTU21D;51375;44.836;38.672;2023-11-22T05:02:55;8.01;72.26
64882;HTU21D;51375;44.836;38.672;2023-11-22T05:05:21;7.73;73.44
64882;HTU21D;51375;44.836;38.672;2023-11-22T05:07:47;7.65;73.17
64882;HTU21D;51375;44.836;38.672;2023-11-22T05:10:13;7.60;73.12
64882;HTU21D;51375;44.836;38.672;2023-11-22T05:12:39;7.65;72.98
64882;HTU21D;51375;44.836;38.672;2023-11-22T05:15:06;7.72;72.74
64882;HTU21D;51375;44.836;38.672;2023-11-22T05:17:33;7.82;72.36
64882;HTU21D;51375;44.836;38.672;2023-11-22T05:19:59;7.94;72.01
64882;HTU21D;51375;44.836;38.672;2023-11-22T05:22:25;8.02;71.64
64882;HTU21D;51375;44.836;38.672;2023-11-22T05:24:51;8.07;71.72
64882;HTU21D;51375;44.836;38.672;2023-11-22T05:27:17;8.18;71.56
64882;HTU21D;51375;44.836;38.672;2023-11-22T05:29:43;8.26;71.33
64882;HTU21D;51375;44.836;38.672;2023-11-22T05:32:09;8.34;71.26
64882;HTU21D;51375;44.836;38.672;2023-11-22T05:34:35;8.38;71.04
64882;HTU21D;51375;44.836;38.672;2023-11-22T05:37:01;8.26;71.36
64882;HTU21D;51375;44.836;38.672;2023-11-22T05:39:27;8.16;71.71
64882;HTU21D;51375;44.836;38.672;2023-11-22T05:41:53;8.08;72.23
64882;HTU21D;51375;44.836;38.672;2023-11-22T05:44:19;8.15;72.25
64882;HTU21D;51375;44.836;38.672;2023-11-22T05:46:45;8.11;72.19
64882;HTU21D;51375;44.836;38.672;2023-11-22T05:49:11;8.02;72.29
64882;HTU21D;51375;44.836;38.672;2023-11-22T05:51:38;7.96;72.48
64882;HTU21D;51375;44.836;38.672;2023-11-22T05:54:04;7.88;72.59
64882;HTU21D;51375;44.836;38.672;2023-11-22T05:56:30;7.84;72.93
64882;HTU21D;51375;44.836;38.672;2023-11-22T05:58:57;7.84;72.94
64882;HTU21D;51375;44.836;38.672;2023-11-22T06:01:23;7.79;73.22
64882;HTU21D;51375;44.836;38.672;2023-11-22T06:03:50;7.79;73.28
64882;HTU21D;51375;44.836;38.672;2023-11-22T06:06:16;7.75;73.48
64882;HTU21D;51375;44.836;38.672;2023-11-22T06:08:42;7.72;73.90
64882;HTU21D;51375;44.836;38.672;2023-11-22T06:11:08;7.82;73.87
64882;HTU21D;51375;44.836;38.672;2023-11-22T06:13:34;7.84;73.96
64882;HTU21D;51375;44.836;38.672;2023-11-22T06:16:00;7.83;73.93
64882;HTU21D;51375;44.836;38.672;2023-11-22T06:18:26;7.84;74.05
64882;HTU21D;51375;44.836;38.672;2023-11-22T06:20:56;7.84;74.29
64882;HTU21D;51375;44.836;38.672;2023-11-22T06:23:22;7.84;74.47
64882;HTU21D;51375;44.836;38.672;2023-11-22T06:25:48;7.82;74.65
64882;HTU21D;51375;44.836;38.672;2023-11-22T06:28:15;7.85;74.68
64882;HTU21D;51375;44.836;38.672;2023-11-22T06:30:41;7.87;74.85
64882;HTU21D;51375;44.836;38.672;2023-11-22T06:33:07;7.97;74.80
64882;HTU21D;51375;44.836;38.672;2023-11-22T06:35:33;8.01;74.85
64882;HTU21D;51375;44.836;38.672;2023-11-22T06:37:59;8.05;75.04
64882;HTU21D;51375;44.836;38.672;2023-11-22T06:40:35;8.17;74.85
64882;HTU21D;51375;44.836;38.672;2023-11-22T06:43:01;8.22;74.82
64882;HTU21D;51375;44.836;38.672;2023-11-22T06:45:30;8.37;74.69
64882;HTU21D;51375;44.836;38.672;2023-11-22T06:47:59;8.52;74.37
64882;HTU21D;51375;44.836;38.672;2023-11-22T06:50:25;8.60;74.22
64882;HTU21D;51375;44.836;38.672;2023-11-22T06:52:52;8.53;74.54
64882;HTU21D;51375;44.836;38.672;2023-11-22T06:55:18;8.60;74.70
64882;HTU21D;51375;44.836;38.672;2023-11-22T06:57:44;8.73;74.58
64882;HTU21D;51375;44.836;38.672;2023-11-22T07:00:11;8.74;74.50
64882;HTU21D;51375;44.836;38.672;2023-11-22T07:02:42;8.79;74.58
64882;HTU21D;51375;44.836;38.672;2023-11-22T07:05:09;8.89;74.38
64882;HTU21D;51375;44.836;38.672;2023-11-22T07:07:35;8.98;74.35
64882;HTU21D;51375;44.836;38.672;2023-11-22T07:10:03;9.10;74.15
64882;HTU21D;51375;44.836;38.672;2023-11-22T07:12:34;9.17;73.94
64882;HTU21D;51375;44.836;38.672;2023-11-22T07:15:01;9.24;73.96
64882;HTU21D;51375;44.836;38.672;2023-11-22T07:17:28;9.36;73.83
64882;HTU21D;51375;44.836;38.672;2023-11-22T07:19:55;9.44;73.59
64882;HTU21D;51375;44.836;38.672;2023-11-22T07:22:20;9.44;73.66
64882;HTU21D;51375;44.836;38.672;2023-11-22T07:24:48;9.48;73.80
64882;HTU21D;51375;44.836;38.672;2023-11-22T07:27:17;9.55;73.73
64882;HTU21D;51375;44.836;38.672;2023-11-22T07:29:44;9.62;73.68
64882;HTU21D;51375;44.836;38.672;2023-11-22T07:32:14;9.68;73.55
64882;HTU21D;51375;44.836;38.672;2023-11-22T07:34:41;9.76;73.44
64882;HTU21D;51375;44.836;38.672;2023-11-22T07:37:07;9.83;73.33
64882;HTU21D;51375;44.836;38.672;2023-11-22T07:39:36;9.90;73.21
64882;HTU21D;51375;44.836;38.672;2023-11-22T07:42:04;9.98;73.07
64882;HTU21D;51375;44.836;38.672;2023-11-22T07:44:37;10.06;72.91
64882;HTU21D;51375;44.836;38.672;2023-11-22T07:47:04;10.10;72.77
64882;HTU21D;51375;44.836;38.672;2023-11-22T07:49:34;10.14;72.77
64882;HTU21D;51375;44.836;38.672;2023-11-22T07:52:03;10.21;72.83
64882;HTU21D;51375;44.836;38.672;2023-11-22T07:54:30;10.28;72.83
64882;HTU21D;51375;44.836;38.672;2023-11-22T07:56:56;10.34;73.00
64882;HTU21D;51375;44.836;38.672;2023-11-22T07:59:23;10.41;72.89
64882;HTU21D;51375;44.836;38.672;2023-11-22T08:01:49;10.38;73.09
64882;HTU21D;51375;44.836;38.672;2023-11-22T08:04:15;10.41;73.32
64882;HTU21D;51375;44.836;38.672;2023-11-22T08:06:45;10.50;73.24
64882;HTU21D;51375;44.836;38.672;2023-11-22T08:09:11;10.54;73.22
64882;HTU21D;51375;44.836;38.672;2023-11-22T08:11:37;10.57;73.32
64882;HTU21D;51375;44.836;38.672;2023-11-22T08:14:03;10.60;73.40
64882;HTU21D;51375;44.836;38.672;2023-11-22T08:16:29;10.64;73.39
64882;HTU21D;51375;44.836;38.672;2023-11-22T08:18:58;10.65;73.44
64882;HTU21D;51375;44.836;38.672;2023-11-22T08:21:27;10.66;73.54
64882;HTU21D;51375;44.836;38.672;2023-11-22T08:23:54;10.70;73.53
64882;HTU21D;51375;44.836;38.672;2023-11-22T08:26:20;10.74;73.38
64882;HTU21D;51375;44.836;38.672;2023-11-22T08:28:46;10.74;73.27
64882;HTU21D;51375;44.836;38.672;2023-11-22T08:31:12;10.70;73.28
64882;HTU21D;51375;44.836;38.672;2023-11-22T08:33:38;10.70;73.25
64882;HTU21D;51375;44.836;38.672;2023-11-22T08:36:07;10.70;73.09
64882;HTU21D;51375;44.836;38.672;2023-11-22T08:38:35;10.68;73.08
64882;HTU21D;51375;44.836;38.672;2023-11-22T08:41:04;10.63;73.03
64882;HTU21D;51375;44.836;38.672;2023-11-22T08:43:34;10.52;73.12
64882;HTU21D;51375;44.836;38.672;2023-11-22T08:46:01;10.38;73.49
64882;HTU21D;51375;44.836;38.672;2023-11-22T08:48:30;10.29;73.77
64882;HTU21D;51375;44.836;38.672;2023-11-22T08:50:56;10.21;74.02
64882;HTU21D;51375;44.836;38.672;2023-11-22T08:53:23;10.16;74.23
64882;HTU21D;51375;44.836;38.672;2023-11-22T08:55:52;10.20;74.16
64882;HTU21D;51375;44.836;38.672;2023-11-22T08:58:20;10.15;74.28
64882;HTU21D;51375;44.836;38.672;2023-11-22T09:00:46;10.11;74.38
64882;HTU21D;51375;44.836;38.672;2023-11-22T09:03:12;10.11;74.42
64882;HTU21D;51375;44.836;38.672;2023-11-22T09:05:42;10.11;74.27
64882;HTU21D;51375;44.836;38.672;2023-11-22T09:08:09;10.08;74.31
64882;HTU21D;51375;44.836;38.672;2023-11-22T09:10:39;10.08;74.46
64882;HTU21D;51375;44.836;38.672;2023-11-22T09:13:07;10.13;74.30
64882;HTU21D;51375;44.836;38.672;2023-11-22T09:15:33;10.14;74.24
64882;HTU21D;51375;44.836;38.672;2023-11-22T09:18:00;10.14;74.27
64882;HTU21D;51375;44.836;38.672;2023-11-22T09:20:27;10.13;74.27
64882;HTU21D;51375;44.836;38.672;2023-11-22T09:22:54;10.12;74.36
64882;HTU21D;51375;44.836;38.672;2023-11-22T09:25:24;10.11;74.50
64882;HTU21D;51375;44.836;38.672;2023-11-22T09:27:52;10.12;74.43
64882;HTU21D;51375;44.836;38.672;2023-11-22T09:30:22;10.13;74.37
64882;HTU21D;51375;44.836;38.672;2023-11-22T09:33:06;10.10;74.41
64882;HTU21D;51375;44.836;38.672;2023-11-22T09:35:36;10.09;74.32
64882;HTU21D;51375;44.836;38.672;2023-11-22T09:38:05;10.12;74.20
64882;HTU21D;51375;44.836;38.672;2023-11-22T09:40:45;10.11;74.16
64882;HTU21D;51375;44.836;38.672;2023-11-22T09:43:12;10.14;74.10
64882;HTU21D;51375;44.836;38.672;2023-11-22T09:45:49;10.15;74.00
64882;HTU21D;51375;44.836;38.672;2023-11-22T09:48:17;10.19;73.93
64882;HTU21D;51375;44.836;38.672;2023-11-22T09:51:34;10.22;73.64
64882;HTU21D;51375;44.836;38.672;2023-11-22T09:53:47;10.15;73.82
64882;HTU21D;51375;44.836;38.672;2023-11-22T09:56:16;10.13;73.85
64882;HTU21D;51375;44.836;38.672;2023-11-22T09:58:44;10.07;74.06
64882;HTU21D;51375;44.836;38.672;2023-11-22T10:01:14;9.98;74.22
64882;HTU21D;51375;44.836;38.672;2023-11-22T10:03:40;9.92;74.61
64882;HTU21D;51375;44.836;38.672;2023-11-22T10:06:07;9.98;74.62
64882;HTU21D;51375;44.836;38.672;2023-11-22T10:08:33;10.06;74.41
64882;HTU21D;51375;44.836;38.672;2023-11-22T10:11:01;10.07;74.35
64882;HTU21D;51375;44.836;38.672;2023-11-22T10:13:27;10.10;74.31
64882;HTU21D;51375;44.836;38.672;2023-11-22T10:15:53;10.13;74.12
64882;HTU21D;51375;44.836;38.672;2023-11-22T10:18:20;10.07;74.18
64882;HTU21D;51375;44.836;38.672;2023-11-22T10:20:48;9.97;74.59
64882;HTU21D;51375;44.836;38.672;2023-11-22T10:23:19;10.00;74.71
64882;HTU21D;51375;44.836;38.672;2023-11-22T10:25:52;10.06;74.54
64882;HTU21D;51375;44.836;38.672;2023-11-22T10:28:26;10.08;74.31
64882;HTU21D;51375;44.836;38.672;2023-11-22T10:30:53;10.12;74.28
64882;HTU21D;51375;44.836;38.672;2023-11-22T10:33:19;10.10;74.18
64882;HTU21D;51375;44.836;38.672;2023-11-22T10:35:49;10.05;74.51
64882;HTU21D;51375;44.836;38.672;2023-11-22T10:38:17;10.07;74.60
64882;HTU21D;51375;44.836;38.672;2023-11-22T10:40:45;10.11;74.45
64882;HTU21D;51375;44.836;38.672;2023-11-22T10:43:12;10.10;74.33
64882;HTU21D;51375;44.836;38.672;2023-11-22T10:45:38;9.98;74.31
64882;HTU21D;51375;44.836;38.672;2023-11-22T10:48:05;9.79;74.80
64882;HTU21D;51375;44.836;38.672;2023-11-22T10:50:34;9.72;75.25
64882;HTU21D;51375;44.836;38.672;2023-11-22T10:53:01;9.80;75.18
64882;HTU21D;51375;44.836;38.672;2023-11-22T10:55:32;9.90;74.92
64882;HTU21D;51375;44.836;38.672;2023-11-22T10:58:04;9.89;74.75
64882;HTU21D;51375;44.836;38.672;2023-11-22T11:00:32;9.89;74.92
64882;HTU21D;51375;44.836;38.672;2023-11-22T11:03:17;9.94;74.75
64882;HTU21D;51375;44.836;38.672;2023-11-22T11:06:04;9.96;74.56
64882;HTU21D;51375;44.836;38.672;2023-11-22T11:08:30;10.00;74.49
64882;HTU21D;51375;44.836;38.672;2023-11-22T11:11:00;10.03;74.49
64882;HTU21D;51375;44.836;38.672;2023-11-22T11:13:29;10.07;74.25
64882;HTU21D;51375;44.836;38.672;2023-11-22T11:15:56;10.05;74.20
64882;HTU21D;51375;44.836;38.672;2023-11-22T11:18:23;10.03;74.35
64882;HTU21D;51375;44.836;38.672;2023-11-22T11:20:57;10.04;74.33
64882;HTU21D;51375;44.836;38.672;2023-11-22T11:23:27;10.07;74.22
64882;HTU21D;51375;44.836;38.672;2023-11-22T11:25:56;10.05;74.12
64882;HTU21D;51375;44.836;38.672;2023-11-22T11:28:23;10.00;74.31
64882;HTU21D;51375;44.836;38.672;2023-11-22T11:30:56;10.07;74.37
64882;HTU21D;51375;44.836;38.672;2023-11-22T11:36:30;10.12;73.89
64882;HTU21D;51375;44.836;38.672;2023-11-22T11:39:05;10.12;74.09
64882;HTU21D;51375;44.836;38.672;2023-11-22T11:41:35;10.21;74.00
64882;HTU21D;51375;44.836;38.672;2023-11-22T11:44:07;10.23;73.81
64882;HTU21D;51375;44.836;38.672;2023-11-22T11:46:35;10.22;73.66
64882;HTU21D;51375;44.836;38.672;2023-11-22T11:49:06;10.15;73.69
64882;HTU21D;51375;44.836;38.672;2023-11-22T11:51:33;10.12;73.80
64882;HTU21D;51375;44.836;38.672;2023-11-22T11:53:58;10.14;73.81
64882;HTU21D;51375;44.836;38.672;2023-11-22T11:56:24;10.20;73.73
64882;HTU21D;51375;44.836;38.672;2023-11-22T11:58:53;10.22;73.54
64882;HTU21D;51375;44.836;38.672;2023-11-22T12:01:19;10.19;73.57
64882;HTU21D;51375;44.836;38.672;2023-11-22T12:03:48;10.20;73.54
64882;HTU21D;51375;44.836;38.672;2023-11-22T12:06:18;10.21;73.30
64882;HTU21D;51375;44.836;38.672;2023-11-22T12:08:45;10.16;73.44
64882;HTU21D;51375;44.836;38.672;2023-11-22T12:11:13;10.14;73.65
64882;HTU21D;51375;44.836;38.672;2023-11-22T12:13:39;10.18;73.54
64882;HTU21D;51375;44.836;38.672;2023-11-22T12:16:09;10.16;73.51
64882;HTU21D;51375;44.836;38.672;2023-11-22T12:18:44;10.18;73.32
64882;HTU21D;51375;44.836;38.672;2023-11-22T12:21:13;10.15;73.39
64882;HTU21D;51375;44.836;38.672;2023-11-22T12:23:40;10.14;73.38
64882;HTU21D;51375;44.836;38.672;2023-11-22T12:26:11;10.12;73.50
64882;HTU21D;51375;44.836;38.672;2023-11-22T12:28:39;10.09;73.42
64882;HTU21D;51375;44.836;38.672;2023-11-22T12:31:10;10.03;73.57
64882;HTU21D;51375;44.836;38.672;2023-11-22T12:33:37;10.00;73.79
64882;HTU21D;51375;44.836;38.672;2023-11-22T12:36:06;10.00;73.75
64882;HTU21D;51375;44.836;38.672;2023-11-22T12:38:36;10.00;73.72
64882;HTU21D;51375;44.836;38.672;2023-11-22T12:41:03;10.01;73.66
64882;HTU21D;51375;44.836;38.672;2023-11-22T12:43:29;10.06;73.53
64882;HTU21D;51375;44.836;38.672;2023-11-22T12:46:08;10.08;73.35
64882;HTU21D;51375;44.836;38.672;2023-11-22T12:48:39;10.12;73.37
64882;HTU21D;51375;44.836;38.672;2023-11-22T12:51:15;10.14;73.11
64882;HTU21D;51375;44.836;38.672;2023-11-22T12:53:41;10.14;73.10
64882;HTU21D;51375;44.836;38.672;2023-11-22T12:56:08;10.09;73.15
64882;HTU21D;51375;44.836;38.672;2023-11-22T12:58:34;9.97;73.52
64882;HTU21D;51375;44.836;38.672;2023-11-22T13:01:00;9.93;73.65
64882;HTU21D;51375;44.836;38.672;2023-11-22T13:03:28;9.93;73.58
64882;HTU21D;51375;44.836;38.672;2023-11-22T13:05:54;9.89;73.61
64882;HTU21D;51375;44.836;38.672;2023-11-22T13:08:20;9.83;73.66
64882;HTU21D;51375;44.836;38.672;2023-11-22T13:10:49;9.74;73.66
64882;HTU21D;51375;44.836;38.672;2023-11-22T13:13:24;9.48;74.21
64882;HTU21D;51375;44.836;38.672;2023-11-22T13:15:52;9.33;74.64
64882;HTU21D;51375;44.836;38.672;2023-11-22T13:18:19;9.22;74.96
64882;HTU21D;51375;44.836;38.672;2023-11-22T13:20:46;9.11;75.18
64882;HTU21D;51375;44.836;38.672;2023-11-22T13:23:12;9.02;75.41
64882;HTU21D;51375;44.836;38.672;2023-11-22T13:25:40;8.95;75.56
64882;HTU21D;51375;44.836;38.672;2023-11-22T13:28:08;8.88;75.73
64882;HTU21D;51375;44.836;38.672;2023-11-22T13:30:35;8.86;75.77
64882;HTU21D;51375;44.836;38.672;2023-11-22T13:33:01;8.79;75.83
64882;HTU21D;51375;44.836;38.672;2023-11-22T13:35:28;8.80;76.00
64882;HTU21D;51375;44.836;38.672;2023-11-22T13:37:59;8.91;75.73
64882;HTU21D;51375;44.836;38.672;2023-11-22T13:40:27;8.95;75.54
64882;HTU21D;51375;44.836;38.672;2023-11-22T13:42:57;9.02;75.31
64882;HTU21D;51375;44.836;38.672;2023-11-22T13:45:24;9.01;75.28
64882;HTU21D;51375;44.836;38.672;2023-11-22T13:47:52;8.92;75.38
64882;HTU21D;51375;44.836;38.672;2023-11-22T13:50:23;8.85;75.45
64882;HTU21D;51375;44.836;38.672;2023-11-22T13:52:53;8.70;75.62
64882;HTU21D;51375;44.836;38.672;2023-11-22T13:55:19;8.57;76.15
64882;HTU21D;51375;44.836;38.672;2023-11-22T13:57:52;8.63;76.31
64882;HTU21D;51375;44.836;38.672;2023-11-22T14:00:20;8.75;75.91
64882;HTU21D;51375;44.836;38.672;2023-11-22T14:02:50;8.71;75.79
64882;HTU21D;51375;44.836;38.672;2023-11-22T14:05:25;8.61;75.97
64882;HTU21D;51375;44.836;38.672;2023-11-22T14:07:53;8.59;75.98
64882;HTU21D;51375;44.836;38.672;2023-11-22T14:10:20;8.48;75.98
64882;HTU21D;51375;44.836;38.672;2023-11-22T14:12:51;8.32;76.58
64882;HTU21D;51375;44.836;38.672;2023-11-22T14:15:18;8.30;76.64
64882;HTU21D;51375;44.836;38.672;2023-11-22T14:17:45;8.28;76.80
64882;HTU21D;51375;44.836;38.672;2023-11-22T14:20:15;8.24;76.97
64882;HTU21D;51375;44.836;38.672;2023-11-22T14:22:42;8.26;77.03
64882;HTU21D;51375;44.836;38.672;2023-11-22T14:25:09;8.30;76.91
64882;HTU21D;51375;44.836;38.672;2023-11-22T14:27:40;8.26;76.96
64882;HTU21D;51375;44.836;38.672;2023-11-22T14:30:08;8.26;77.13
64882;HTU21D;51375;44.836;38.672;2023-11-22T14:32:34;8.31;77.08
64882;HTU21D;51375;44.836;38.672;2023-11-22T14:35:02;8.41;77.00
64882;HTU21D;51375;44.836;38.672;2023-11-22T14:37:29;8.48;76.82
64882;HTU21D;51375;44.836;38.672;2023-11-22T14:40:02;8.59;76.64
64882;HTU21D;51375;44.836;38.672;2023-11-22T14:42:31;8.60;76.63
64882;HTU21D;51375;44.836;38.672;2023-11-22T14:44:57;8.60;76.63
64882;HTU21D;51375;44.836;38.672;2023-11-22T14:47:29;8.62;76.57
64882;HTU21D;51375;44.836;38.672;2023-11-22T14:50:03;8.65;76.49
64882;HTU21D;51375;44.836;38.672;2023-11-22T14:52:32;8.56;76.73
64882;HTU21D;51375;44.836;38.672;2023-11-22T14:54:59;8.51;76.92
64882;HTU21D;51375;44.836;38.672;2023-11-22T14:57:26;8.48;77.12
64882;HTU21D;51375;44.836;38.672;2023-11-22T14:59:53;8.53;77.11
64882;HTU21D;51375;44.836;38.672;2023-11-22T15:02:19;8.58;77.13
64882;HTU21D;51375;44.836;38.672;2023-11-22T15:04:46;8.61;77.11
64882;HTU21D;51375;44.836;38.672;2023-11-22T15:07:13;8.63;77.21
64882;HTU21D;51375;44.836;38.672;2023-11-22T15:09:41;8.70;77.16
64882;HTU21D;51375;44.836;38.672;2023-11-22T15:12:07;8.74;77.08
64882;HTU21D;51375;44.836;38.672;2023-11-22T15:14:34;8.77;76.99
64882;HTU21D;51375;44.836;38.672;2023-11-22T15:17:00;8.74;77.07